Time;durP1;ratioP1;P1;durP2;ratioP2;P2;SDS_P1;SDS_P2;PMS_P1;PMS_P2;Temp;Humidity;BMP_temperature;BMP_pressure;BME280_temperature;BME280_humidity;BME280_pressure;Samples;Min_cycle;Max_cycle;Signal;HPM_P1;HPM_P2
2022/09/13 00:01:37;;;;;;;25.23;18.55;;;17.90;99.90;;;;;;5108659;28;20043;-65
2022/09/13 00:04:03;;;;;;;22.85;16.77;;;18.00;99.90;;;;;;5106489;28;20032;-65
2022/09/13 00:06:29;;;;;;;28.00;18.50;;;18.00;99.90;;;;;;5109312;28;20048;-65
2022/09/13 00:08:55;;;;;;;23.42;17.40;;;18.00;99.90;;;;;;5109865;28;20036;-65
2022/09/13 00:11:25;;;;;;;23.25;18.27;;;18.00;99.90;;;;;;5111482;27;20028;-65
2022/09/13 00:13:52;;;;;;;23.10;17.60;;;18.00;99.90;;;;;;5092379;28;20064;-66
2022/09/13 00:16:20;;;;;;;24.65;18.35;;;17.90;99.90;;;;;;5104190;28;20036;-65
2022/09/13 00:18:46;;;;;;;25.95;19.23;;;18.00;99.90;;;;;;5106963;28;20054;-66
2022/09/13 00:21:15;;;;;;;28.95;18.75;;;17.90;99.90;;;;;;5090700;28;20062;-65
2022/09/13 00:23:49;;;;;;;27.90;18.73;;;17.90;99.90;;;;;;5111116;28;20378;-66
2022/09/13 00:26:24;;;;;;;28.10;19.08;;;17.90;99.90;;;;;;5110218;27;20035;-65
2022/09/13 00:28:55;;;;;;;27.17;19.00;;;17.90;99.90;;;;;;5108721;28;20043;-66
2022/09/13 00:31:23;;;;;;;25.85;19.00;;;17.90;99.90;;;;;;5108309;28;20658;-65
2022/09/13 00:33:49;;;;;;;;;;;17.90;99.90;;;;;;5109486;28;20065;-66
2022/09/13 00:36:15;;;;;;;23.35;16.25;;;17.90;99.90;;;;;;5113149;28;19926;-65
2022/09/13 00:38:42;;;;;;;21.55;16.13;;;17.80;99.90;;;;;;5094561;28;20043;-66
2022/09/13 00:41:13;;;;;;;24.05;17.33;;;17.80;99.90;;;;;;5110116;28;20048;-66
2022/09/13 00:44:25;;;;;;;22.05;16.25;;;17.90;99.90;;;;;;5110609;28;20085;-66
2022/09/13 00:46:51;;;;;;;24.02;16.42;;;17.80;99.90;;;;;;5087926;28;20051;-65
2022/09/13 00:49:19;;;;;;;22.65;16.77;;;17.80;99.90;;;;;;5105277;28;20044;-66
2022/09/13 00:51:51;;;;;;;22.33;16.73;;;17.60;99.90;;;;;;5111496;28;20050;-65
2022/09/13 00:54:21;;;;;;;21.90;16.40;;;17.80;99.90;;;;;;5108480;28;20056;-65
2022/09/13 00:56:51;;;;;;;26.40;17.73;;;17.80;99.90;;;;;;5093264;28;20180;-65
2022/09/13 00:59:35;;;;;;;26.38;17.60;;;17.70;99.90;;;;;;5107799;28;20414;-65
2022/09/13 01:02:03;;;;;;;27.95;17.58;;;17.70;99.90;;;;;;5104817;28;20040;-65
2022/09/13 01:04:31;;;;;;;23.70;17.85;;;17.70;99.90;;;;;;5086524;28;20378;-65
2022/09/13 01:07:01;;;;;;;28.20;20.33;;;17.70;99.90;;;;;;5125509;28;20043;-65
2022/09/13 01:09:28;;;;;;;29.77;21.35;;;17.70;99.90;;;;;;5107992;28;20515;-66
2022/09/13 01:12:02;;;;;;;31.30;22.13;;;17.70;99.90;;;;;;5112910;28;20364;-66
2022/09/13 01:14:29;;;;;;;34.83;20.63;;;17.70;99.90;;;;;;5111901;28;20416;-65
2022/09/13 01:16:55;;;;;;;29.95;20.10;;;17.70;99.90;;;;;;5113295;28;20040;-65
2022/09/13 01:19:20;;;;;;;30.95;19.48;;;17.70;99.90;;;;;;5111026;28;20031;-65
2022/09/13 01:22:12;;;;;;;26.05;18.75;;;17.60;99.90;;;;;;5098006;28;20408;-65
2022/09/13 01:24:59;;;;;;;24.38;17.83;;;17.70;99.90;;;;;;5113718;27;20050;-65
2022/09/13 01:27:46;;;;;;;29.00;18.30;;;17.60;99.90;;;;;;5095832;28;20039;-65
2022/09/13 01:30:21;;;;;;;24.42;17.15;;;17.60;99.90;;;;;;5114209;27;20050;-64
2022/09/13 01:33:05;;;;;;;28.05;18.17;;;17.60;99.90;;;;;;5116126;27;20100;-65
2022/09/13 01:35:49;;;;;;;21.88;16.23;;;17.60;99.90;;;;;;5101698;22;20524;-65
2022/09/13 01:38:51;;;;;;;24.00;16.38;;;17.70;99.90;;;;;;5045398;28;20045;-64
2022/09/13 01:41:23;;;;;;;19.80;14.35;;;17.60;99.90;;;;;;5027490;28;20033;-66
2022/09/13 01:43:57;;;;;;;18.50;13.82;;;17.60;99.90;;;;;;5025368;28;20103;-65
2022/09/13 01:46:44;;;;;;;19.17;14.18;;;17.60;99.90;;;;;;5024846;28;20055;-66
2022/09/13 01:49:18;;;;;;;21.48;13.80;;;17.60;99.90;;;;;;5039996;28;20045;-65
2022/09/13 01:51:46;;;;;;;18.65;12.77;;;17.60;99.90;;;;;;5028479;28;20394;-65
2022/09/13 01:54:36;;;;;;;16.27;12.57;;;17.60;99.90;;;;;;5049931;28;20037;-66
2022/09/13 01:57:13;;;;;;;21.15;13.70;;;17.60;99.90;;;;;;5049479;28;20069;-66
2022/09/13 01:59:49;;;;;;;17.70;12.60;;;17.60;99.90;;;;;;5050310;28;20118;-65
2022/09/13 02:02:32;;;;;;;16.80;12.25;;;17.60;99.90;;;;;;5031146;28;20073;-65
2022/09/13 02:05:40;;;;;;;19.45;13.30;;;17.60;99.90;;;;;;5051903;28;20045;-65
2022/09/13 02:08:15;;;;;;;18.02;13.07;;;17.60;99.90;;;;;;4983616;28;20416;-65
2022/09/13 02:10:46;;;;;;;20.38;13.50;;;17.60;99.90;;;;;;5048507;28;20048;-66
2022/09/13 02:13:20;;;;;;;17.17;13.05;;;17.60;99.90;;;;;;5050212;28;20515;-65
2022/09/13 02:15:50;;;;;;;20.15;13.45;;;17.60;99.90;;;;;;5035665;28;20473;-66
2022/09/13 02:18:33;;;;;;;20.60;12.82;;;17.60;99.90;;;;;;5059866;28;20043;-65
2022/09/13 02:21:05;;;;;;;19.88;13.38;;;17.60;99.90;;;;;;5058108;28;20049;-65
2022/09/13 02:23:44;;;;;;;17.08;12.20;;;17.60;99.90;;;;;;5073429;28;20051;-66
2022/09/13 02:26:13;;;;;;;17.75;13.07;;;17.60;99.90;;;;;;5069481;28;20037;-65
2022/09/13 02:28:48;;;;;;;20.45;13.73;;;17.60;99.90;;;;;;5071881;28;20106;-65
2022/09/13 02:31:18;;;;;;;19.42;12.48;;;17.60;99.90;;;;;;5070901;28;20076;-66
2022/09/13 02:34:24;;;;;;;19.65;13.85;;;17.60;99.90;;;;;;5068209;28;20399;-66
2022/09/13 02:37:00;;;;;;;19.20;12.43;;;17.60;99.90;;;;;;5065898;28;20110;-65
2022/09/13 02:39:29;;;;;;;16.13;12.48;;;17.60;99.90;;;;;;5070037;28;20040;-65
2022/09/13 02:41:57;;;;;;;20.20;13.60;;;17.60;99.90;;;;;;5067101;28;20459;-66
2022/09/13 02:44:34;;;;;;;;;;;17.60;99.90;;;;;;5070235;28;20395;-66
2022/09/13 02:47:23;;;;;;;23.83;13.43;;;17.60;99.90;;;;;;5069641;28;19959;-66
2022/09/13 02:50:35;;;;;;;17.63;12.95;;;17.70;99.90;;;;;;5066677;28;20040;-65
2022/09/13 02:53:23;;;;;;;20.60;13.85;;;17.70;99.90;;;;;;5056344;28;20123;-65
2022/09/13 02:56:01;;;;;;;22.35;15.25;;;17.70;99.90;;;;;;5070137;28;20071;-65
2022/09/13 02:58:47;;;;;;;19.30;14.90;;;17.70;99.90;;;;;;5072505;28;20048;-65
2022/09/13 03:01:14;;;;;;;20.15;14.18;;;17.70;99.90;;;;;;5070443;28;20398;-65
2022/09/13 03:03:39;;;;;;;17.35;12.55;;;17.70;99.90;;;;;;5048419;28;20128;-65
2022/09/13 03:06:05;;;;;;;22.92;13.48;;;17.70;99.90;;;;;;5072708;28;20573;-66
2022/09/13 03:08:32;;;;;;;19.17;13.10;;;17.80;99.90;;;;;;5070794;28;20044;-66
2022/09/13 03:11:11;;;;;;;11.13;6.10;;;17.90;99.90;;;;;;5067458;28;20043;-66
2022/09/13 03:14:11;;;;;;;5.50;3.90;;;17.90;99.90;;;;;;5071564;28;20044;-67
2022/09/13 03:16:52;;;;;;;9.30;3.35;;;17.80;99.90;;;;;;5067735;28;20033;-67
2022/09/13 03:19:56;;;;;;;6.88;3.70;;;17.60;99.90;;;;;;5061022;28;20411;-66
2022/09/13 03:23:19;;;;;;;7.57;3.03;;;17.50;99.90;;;;;;5048808;28;20044;-66
2022/09/13 03:26:05;;;;;;;6.90;3.75;;;17.40;99.90;;;;;;5023015;28;20047;-66
2022/09/13 03:29:07;;;;;;;7.32;3.83;;;17.30;99.90;;;;;;5019781;28;20535;-66
2022/09/13 03:31:59;;;;;;;5.63;3.05;;;17.40;99.90;;;;;;5065565;28;20388;-67
2022/09/13 03:34:45;;;;;;;5.57;3.58;;;17.30;99.90;;;;;;5057218;28;20521;-66
2022/09/13 03:37:32;;;;;;;5.50;3.28;;;17.30;99.90;;;;;;5070792;28;20064;-66
2022/09/13 03:40:06;;;;;;;7.20;3.55;;;17.30;99.90;;;;;;5064500;28;20494;-67
2022/09/13 03:42:43;;;;;;;7.45;4.10;;;17.40;99.90;;;;;;5069914;28;20041;-66
2022/09/13 03:45:10;;;;;;;7.35;4.07;;;17.40;99.90;;;;;;5068629;28;20120;-66
2022/09/13 03:47:39;;;;;;;6.53;4.10;;;17.40;99.90;;;;;;5051708;28;20120;-66
2022/09/13 03:50:07;;;;;;;5.00;3.72;;;17.40;99.90;;;;;;5050491;28;20036;-66
2022/09/13 03:52:33;;;;;;;6.88;4.13;;;17.40;99.90;;;;;;5061820;28;20052;-66
2022/09/13 03:55:00;;;;;;;8.55;4.13;;;17.40;99.90;;;;;;5059082;28;20087;-66
2022/09/13 03:57:26;;;;;;;7.22;3.05;;;17.40;99.90;;;;;;5066912;28;20040;-66
2022/09/13 03:59:56;;;;;;;4.32;2.50;;;17.40;99.90;;;;;;5068480;28;20452;-66
2022/09/13 04:02:23;;;;;;;4.22;1.83;;;17.50;99.90;;;;;;5061863;28;20627;-66
2022/09/13 04:04:51;;;;;;;5.80;2.03;;;17.40;99.90;;;;;;5069739;28;20407;-66
2022/09/13 04:07:22;;;;;;;4.78;1.92;;;17.50;99.90;;;;;;5061934;28;20131;-67
2022/09/13 04:09:48;;;;;;;5.80;1.88;;;17.40;99.90;;;;;;5046576;28;20051;-66
2022/09/13 04:12:15;;;;;;;5.22;1.80;;;17.50;99.90;;;;;;5068167;28;20086;-68
2022/09/13 04:14:44;;;;;;;7.22;1.73;;;17.40;99.90;;;;;;5070072;28;20067;-66
2022/09/13 04:17:11;;;;;;;4.47;1.90;;;17.40;99.90;;;;;;5069284;28;20040;-66
2022/09/13 04:19:36;;;;;;;4.95;1.80;;;17.40;99.90;;;;;;5033855;28;20117;-67
2022/09/13 04:22:02;;;;;;;5.93;1.80;;;17.40;99.90;;;;;;5070736;28;20431;-66
2022/09/13 04:24:30;;;;;;;7.32;2.17;;;17.40;99.90;;;;;;5054013;28;20479;-66
2022/09/13 04:26:56;;;;;;;7.97;2.05;;;17.40;99.90;;;;;;5034544;28;20094;-66
2022/09/13 04:29:23;;;;;;;6.07;2.05;;;17.30;99.90;;;;;;5069439;28;20040;-66
2022/09/13 04:31:50;;;;;;;4.30;1.60;;;17.30;99.90;;;;;;5062460;28;20076;-66
2022/09/13 04:34:17;;;;;;;5.70;2.05;;;17.30;99.90;;;;;;5052121;28;20422;-66
2022/09/13 04:36:44;;;;;;;5.18;1.98;;;17.30;99.90;;;;;;5068154;28;20053;-66
2022/09/13 04:39:12;;;;;;;6.22;2.28;;;17.30;99.90;;;;;;5068690;28;20041;-66
2022/09/13 04:41:39;;;;;;;;;;;17.30;99.90;;;;;;5051178;28;20045;-66
2022/09/13 04:44:04;;;;;;;6.03;3.33;;;17.30;99.90;;;;;;5049262;28;19921;-66
2022/09/13 04:46:30;;;;;;;6.18;2.70;;;17.30;99.90;;;;;;5067057;28;20195;-66
2022/09/13 04:48:56;;;;;;;7.95;2.90;;;17.30;99.90;;;;;;5069189;28;20462;-66
2022/09/13 04:51:22;;;;;;;7.95;3.17;;;17.40;99.90;;;;;;5066392;28;20070;-66
2022/09/13 04:53:54;;;;;;;4.32;2.63;;;17.30;99.90;;;;;;5065547;28;20040;-67
2022/09/13 04:56:23;;;;;;;7.63;2.63;;;17.30;99.90;;;;;;5069746;28;20076;-66
2022/09/13 04:58:55;;;;;;;5.25;2.30;;;17.30;99.90;;;;;;5071869;28;20083;-66
2022/09/13 05:01:22;;;;;;;9.38;2.40;;;17.30;99.90;;;;;;5073228;28;20041;-66
2022/09/13 05:03:49;;;;;;;5.15;2.75;;;17.30;99.90;;;;;;5068444;28;20067;-66
2022/09/13 05:06:19;;;;;;;8.30;3.05;;;17.30;99.90;;;;;;5068559;28;20086;-66
2022/09/13 05:08:54;;;;;;;6.25;2.95;;;17.20;99.90;;;;;;5052983;28;20560;-66
2022/09/13 05:11:24;;;;;;;4.53;2.85;;;17.30;99.90;;;;;;5064837;28;20380;-66
2022/09/13 05:13:53;;;;;;;8.82;4.10;;;17.30;99.90;;;;;;5071360;28;20041;-65
2022/09/13 05:16:20;;;;;;;6.82;3.40;;;17.30;99.90;;;;;;5054215;28;20064;-66
2022/09/13 05:18:45;;;;;;;6.95;3.00;;;17.30;99.90;;;;;;5071146;28;20041;-66
2022/09/13 05:21:11;;;;;;;9.63;2.63;;;17.30;99.90;;;;;;5065542;28;20050;-65
2022/09/13 05:23:37;;;;;;;6.28;2.45;;;17.30;99.90;;;;;;5072371;28;20113;-66
2022/09/13 05:26:04;;;;;;;7.22;2.63;;;17.30;99.90;;;;;;5067154;28;20112;-65
2022/09/13 05:28:33;;;;;;;11.20;2.17;;;17.30;99.90;;;;;;5065939;28;20048;-64
2022/09/13 05:30:58;;;;;;;5.85;2.30;;;17.30;99.90;;;;;;5068557;28;20036;-66
2022/09/13 05:33:26;;;;;;;7.88;2.50;;;17.30;99.90;;;;;;5064592;28;20528;-66
2022/09/13 05:35:51;;;;;;;11.45;2.50;;;17.40;99.90;;;;;;5074291;28;20368;-67
2022/09/13 05:38:18;;;;;;;6.82;2.15;;;17.40;99.90;;;;;;5068719;28;20043;-66
2022/09/13 05:40:44;;;;;;;8.45;1.90;;;17.30;99.90;;;;;;5054065;28;20091;-65
2022/09/13 05:43:16;;;;;;;6.63;2.13;;;17.20;99.90;;;;;;5073411;28;20104;-66
2022/09/13 05:45:42;;;;;;;11.43;2.60;;;17.20;99.90;;;;;;5053113;28;20386;-66
2022/09/13 05:48:07;;;;;;;12.48;2.38;;;17.30;99.90;;;;;;5069483;28;20045;-67
2022/09/13 05:50:37;;;;;;;8.55;2.03;;;17.20;99.90;;;;;;5068697;28;20044;-66
2022/09/13 05:53:02;;;;;;;10.88;2.47;;;17.00;99.90;;;;;;5053662;28;20032;-66
2022/09/13 05:55:28;;;;;;;8.20;2.10;;;17.10;99.90;;;;;;5056062;28;20530;-66
2022/09/13 05:57:54;;;;;;;8.60;2.13;;;17.20;99.90;;;;;;5054305;28;20037;-66
2022/09/13 06:00:20;;;;;;;10.77;2.30;;;17.10;99.90;;;;;;5052012;28;20047;-68
2022/09/13 06:02:46;;;;;;;11.20;2.55;;;17.10;99.90;;;;;;5048964;28;20087;-66
2022/09/13 06:05:11;;;;;;;11.52;2.30;;;17.20;99.90;;;;;;5036800;28;20044;-67
2022/09/13 06:07:41;;;;;;;8.98;2.17;;;17.20;99.90;;;;;;5065479;28;20123;-69
2022/09/13 06:10:11;;;;;;;10.07;2.20;;;17.30;99.90;;;;;;5071537;28;20037;-67
2022/09/13 06:12:37;;;;;;;12.02;2.58;;;17.10;99.90;;;;;;5054821;28;20375;-67
2022/09/13 06:15:03;;;;;;;12.50;2.33;;;17.20;99.90;;;;;;5056297;28;20138;-66
2022/09/13 06:17:28;;;;;;;10.30;2.70;;;17.20;99.90;;;;;;5069346;28;20090;-67
2022/09/13 06:19:55;;;;;;;15.95;2.65;;;17.20;99.90;;;;;;5066630;28;20045;-66
2022/09/13 06:22:21;;;;;;;12.23;2.67;;;17.20;99.90;;;;;;5059839;28;20098;-67
2022/09/13 06:24:47;;;;;;;13.65;2.25;;;17.30;99.90;;;;;;5065411;28;20036;-66
2022/09/13 06:27:13;;;;;;;7.82;2.10;;;17.30;99.90;;;;;;5054812;28;20033;-66
2022/09/13 06:29:38;;;;;;;10.80;2.92;;;17.20;99.90;;;;;;5062386;28;20075;-67
2022/09/13 06:32:04;;;;;;;11.75;2.35;;;17.40;99.90;;;;;;5070139;28;20039;-66
2022/09/13 06:34:30;;;;;;;6.97;1.85;;;17.30;99.90;;;;;;5067527;28;20043;-67
2022/09/13 06:36:56;;;;;;;10.18;2.72;;;17.30;99.90;;;;;;5059874;28;20507;-66
2022/09/13 06:39:21;;;;;;;11.75;2.58;;;17.40;99.90;;;;;;5054599;28;20072;-67
2022/09/13 06:41:50;;;;;;;12.88;2.60;;;17.40;99.90;;;;;;5062990;28;20041;-66
2022/09/13 06:44:16;;;;;;;11.10;2.40;;;17.50;99.90;;;;;;5034961;28;20495;-67
2022/09/13 06:46:41;;;;;;;7.55;2.33;;;17.50;99.90;;;;;;5040362;28;20110;-66
2022/09/13 06:49:09;;;;;;;9.60;2.10;;;17.50;99.90;;;;;;5064116;28;20045;-67
2022/09/13 06:51:35;;;;;;;12.27;2.53;;;17.50;99.90;;;;;;5040654;28;20084;-67
2022/09/13 06:54:02;;;;;;;10.57;1.98;;;17.60;99.90;;;;;;5056872;28;20036;-67
2022/09/13 06:56:34;;;;;;;6.53;1.50;;;17.70;99.90;;;;;;5057210;28;20045;-66
2022/09/13 06:59:03;;;;;;;16.45;2.53;;;18.00;99.90;;;;;;5053108;28;20044;-66
2022/09/13 07:01:37;;;;;;;10.13;2.00;;;18.20;99.90;;;;;;5056144;28;20052;-66
2022/09/13 07:04:09;;;;;;;6.82;2.30;;;18.30;99.90;;;;;;5035408;28;20049;-66
2022/09/13 07:06:37;;;;;;;14.25;2.50;;;18.50;99.90;;;;;;5035521;28;20041;-67
2022/09/13 07:09:06;;;;;;;8.00;1.75;;;18.60;99.90;;;;;;5035758;28;20487;-66
2022/09/13 07:11:35;;;;;;;9.70;2.22;;;18.60;99.90;;;;;;5053311;28;20048;-66
2022/09/13 07:14:01;;;;;;;8.35;2.10;;;18.50;99.90;;;;;;5053872;28;20045;-66
2022/09/13 07:16:31;;;;;;;9.93;1.63;;;18.50;99.90;;;;;;5053867;28;20045;-66
2022/09/13 07:19:04;;;;;;;8.77;1.80;;;18.40;99.90;;;;;;5037056;28;20055;-66
2022/09/13 07:21:31;;;;;;;10.13;2.22;;;18.40;99.90;;;;;;5072688;28;20045;-66
2022/09/13 07:23:57;;;;;;;10.98;2.15;;;18.40;99.90;;;;;;5073338;28;20171;-66
2022/09/13 07:26:24;;;;;;;11.52;1.70;;;18.40;99.90;;;;;;5049342;28;20493;-67
2022/09/13 07:28:52;;;;;;;5.38;1.38;;;18.40;99.90;;;;;;5053611;28;20103;-66
2022/09/13 07:31:21;;;;;;;5.18;1.10;;;18.40;99.90;;;;;;5053404;28;20045;-66
2022/09/13 07:33:51;;;;;;;6.45;1.90;;;18.30;99.90;;;;;;5053367;28;20059;-66
2022/09/13 07:36:17;;;;;;;12.63;2.78;;;18.20;99.90;;;;;;5067165;28;20049;-67
2022/09/13 07:38:44;;;;;;;7.47;1.80;;;18.20;99.90;;;;;;5073069;28;20482;-67
2022/09/13 07:41:15;;;;;;;5.07;1.50;;;18.20;99.90;;;;;;5071479;28;20045;-67
2022/09/13 07:43:41;;;;;;;12.95;1.50;;;18.40;99.90;;;;;;5053080;28;20037;-67
2022/09/13 07:46:10;;;;;;;7.20;1.40;;;18.50;99.90;;;;;;5035689;28;20040;-67
2022/09/13 07:48:38;;;;;;;8.68;1.40;;;18.70;99.90;;;;;;5053209;28;20114;-66
2022/09/13 07:51:15;;;;;;;7.53;1.17;;;18.90;99.90;;;;;;5059405;28;20037;-66
2022/09/13 07:53:43;;;;;;;6.65;1.45;;;18.90;99.90;;;;;;5053103;28;20120;-67
2022/09/13 07:56:18;;;;;;;6.22;1.23;;;18.90;99.90;;;;;;5035011;28;20476;-66
2022/09/13 07:58:46;;;;;;;4.25;1.13;;;19.00;99.90;;;;;;5053506;28;20048;-66
2022/09/13 08:01:20;;;;;;;9.65;2.05;;;19.00;99.90;;;;;;5053000;28;20102;-66
2022/09/13 08:03:54;;;;;;;7.63;1.27;;;19.10;99.90;;;;;;5036414;28;20040;-68
2022/09/13 08:06:20;;;;;;;10.75;2.13;;;19.30;99.90;;;;;;5045243;28;20052;-67
2022/09/13 08:08:46;;;;;;;7.30;1.80;;;19.20;99.90;;;;;;5072683;28;20506;-67
2022/09/13 08:11:33;;;;;;;13.50;1.67;;;19.30;99.90;;;;;;5071228;28;20048;-68
2022/09/13 08:14:00;;;;;;;6.93;1.48;;;19.00;99.90;;;;;;5054863;28;20106;-68
2022/09/13 08:16:27;;;;;;;10.43;1.75;;;19.10;99.90;;;;;;5051064;28;20442;-68
2022/09/13 08:18:55;;;;;;;6.80;1.65;;;19.00;99.90;;;;;;5052944;28;20047;-67
2022/09/13 08:21:22;;;;;;;10.45;1.50;;;18.90;99.90;;;;;;5071586;28;20047;-67
2022/09/13 08:23:48;;;;;;;14.35;2.08;;;18.90;99.90;;;;;;5071210;28;20116;-67
2022/09/13 08:26:14;;;;;;;8.05;1.80;;;19.00;99.90;;;;;;5065535;28;20029;-67
2022/09/13 08:28:41;;;;;;;6.97;1.52;;;19.10;99.90;;;;;;5055674;28;20453;-66
2022/09/13 08:31:12;;;;;;;10.68;1.77;;;19.20;99.90;;;;;;5055007;28;20068;-67
2022/09/13 08:33:38;;;;;;;9.60;1.83;;;19.40;99.90;;;;;;5062457;28;20043;-67
2022/09/13 08:36:04;;;;;;;3.60;1.05;;;19.50;99.90;;;;;;5059374;28;20044;-67
2022/09/13 08:38:33;;;;;;;10.98;2.42;;;19.50;99.90;;;;;;5041413;28;20049;-67
2022/09/13 08:41:04;;;;;;;12.40;1.50;;;19.30;99.90;;;;;;5052447;28;20049;-67
2022/09/13 08:43:48;;;;;;;12.15;1.90;;;19.20;99.90;;;;;;5052432;28;20072;-67
2022/09/13 08:46:19;;;;;;;7.07;1.50;;;19.30;99.90;;;;;;5058485;28;20115;-67
2022/09/13 08:48:49;;;;;;;5.72;1.50;;;19.50;99.90;;;;;;5059611;28;20056;-67
2022/09/13 08:51:37;;;;;;;6.70;1.50;;;19.60;99.90;;;;;;5068145;28;20033;-67
2022/09/13 08:54:03;;;;;;;8.98;1.38;;;19.70;99.90;;;;;;5067853;28;20048;-67
2022/09/13 08:57:02;;;;;;;5.22;1.30;;;19.70;99.90;;;;;;5060071;28;20037;-67
2022/09/13 08:59:50;;;;;;;5.82;1.38;;;19.80;99.90;;;;;;5016468;28;20049;-67
2022/09/13 09:02:37;;;;;;;10.75;1.75;;;19.90;99.90;;;;;;5058138;28;20055;-67
2022/09/13 09:05:10;;;;;;;6.82;1.48;;;20.00;99.90;;;;;;5063239;28;20084;-67
2022/09/13 09:07:42;;;;;;;8.15;1.85;;;19.90;99.90;;;;;;5069414;28;20072;-68
2022/09/13 09:10:22;;;;;;;10.30;1.60;;;19.80;99.90;;;;;;5047491;28;20094;-67
2022/09/13 09:12:57;;;;;;;4.72;1.40;;;20.00;99.90;;;;;;5068840;28;20046;-67
2022/09/13 09:15:48;;;;;;;5.97;1.40;;;20.20;99.90;;;;;;5068241;28;20048;-69
2022/09/13 09:18:40;;;;;;;5.78;1.40;;;20.30;99.90;;;;;;5056935;28;20045;-68
2022/09/13 09:21:14;;;;;;;10.82;1.42;;;20.60;99.90;;;;;;5064254;28;20060;-68
2022/09/13 09:23:50;;;;;;;5.47;1.52;;;20.70;99.90;;;;;;5065935;28;20048;-68
2022/09/13 09:26:24;;;;;;;9.80;1.42;;;20.60;99.30;;;;;;5062672;28;20092;-67
2022/09/13 09:28:52;;;;;;;6.55;1.27;;;20.50;99.30;;;;;;5067291;28;20040;-65
2022/09/13 09:31:43;;;;;;;5.50;1.40;;;20.60;99.50;;;;;;5029133;28;20127;-66
2022/09/13 09:34:24;;;;;;;11.25;1.52;;;20.70;99.90;;;;;;5068275;28;20045;-65
2022/09/13 09:37:11;;;;;;;10.18;1.48;;;20.80;99.00;;;;;;5044311;28;20049;-66
2022/09/13 09:39:38;;;;;;;8.60;2.05;;;20.80;99.00;;;;;;5064695;28;20068;-66
2022/09/13 09:42:15;;;;;;;8.20;1.55;;;20.70;99.50;;;;;;5060630;28;20067;-67
2022/09/13 09:44:45;;;;;;;9.45;1.40;;;21.00;99.90;;;;;;5057011;28;20033;-68
2022/09/13 09:47:39;;;;;;;8.63;1.38;;;21.30;98.10;;;;;;5061417;28;20040;-66
2022/09/13 09:50:26;;;;;;;5.68;1.65;;;21.30;98.60;;;;;;5039924;28;20041;-67
2022/09/13 09:53:17;;;;;;;5.25;2.03;;;21.10;97.70;;;;;;5065092;28;20518;-67
2022/09/13 09:55:53;;;;;;;4.60;1.10;;;20.90;97.60;;;;;;5063794;28;20052;-66
2022/09/13 09:58:36;;;;;;;8.05;1.60;;;20.70;97.50;;;;;;5062812;28;20036;-68
2022/09/13 10:01:02;;;;;;;11.45;1.50;;;20.80;97.70;;;;;;5047697;28;20033;-67
2022/09/13 10:03:32;;;;;;;6.50;1.75;;;20.70;98.50;;;;;;5071326;28;20036;-67
2022/09/13 10:06:11;;;;;;;5.03;1.20;;;20.50;99.30;;;;;;5065335;28;20502;-68
2022/09/13 10:08:40;;;;;;;10.27;2.38;;;20.50;99.60;;;;;;5074503;28;20076;-67
2022/09/13 10:11:07;;;;;;;6.25;1.73;;;20.40;99.20;;;;;;5068683;28;20442;-67
2022/09/13 10:13:33;;;;;;;6.88;1.30;;;20.30;99.10;;;;;;5069107;28;20044;-67
2022/09/13 10:16:24;;;;;;;9.88;1.52;;;20.30;99.30;;;;;;5073734;28;20039;-68
2022/09/13 10:18:49;;;;;;;5.05;1.27;;;20.30;99.80;;;;;;5070084;28;20040;-68
2022/09/13 10:21:18;;;;;;;7.75;1.67;;;20.70;99.90;;;;;;5036433;28;20123;-68
2022/09/13 10:23:45;;;;;;;7.00;1.73;;;21.20;98.70;;;;;;5056473;28;20041;-68
2022/09/13 10:26:12;;;;;;;;;;;21.60;98.10;;;;;;5056249;28;20041;-67
2022/09/13 10:28:58;;;;;;;5.93;1.35;;;21.90;96.30;;;;;;5066464;28;20302;-68
2022/09/13 10:31:40;;;;;;;3.80;1.05;;;22.20;94.80;;;;;;5046502;28;20048;-68
2022/09/13 10:34:16;;;;;;;6.38;1.60;;;21.90;94.90;;;;;;5069616;28;20044;-68
2022/09/13 10:37:00;;;;;;;6.38;1.95;;;21.50;94.40;;;;;;5071410;28;20503;-68
2022/09/13 10:39:28;;;;;;;6.22;1.48;;;21.20;96.20;;;;;;5036452;28;20056;-68
2022/09/13 10:42:01;;;;;;;7.22;1.65;;;21.50;97.20;;;;;;5076153;28;20516;-68
2022/09/13 10:44:32;;;;;;;5.18;1.35;;;22.00;95.50;;;;;;5073696;28;20048;-68
2022/09/13 10:47:01;;;;;;;5.68;1.33;;;22.40;95.90;;;;;;5069599;28;20044;-69
2022/09/13 10:49:47;;;;;;;5.40;1.55;;;22.60;93.10;;;;;;5070650;28;20625;-68
2022/09/13 10:52:43;;;;;;;5.32;1.50;;;22.40;93.10;;;;;;5052721;28;20110;-68
2022/09/13 10:55:18;;;;;;;8.40;1.60;;;22.50;93.50;;;;;;5052202;28;20495;-68
2022/09/13 10:57:50;;;;;;;4.28;1.10;;;22.90;93.00;;;;;;5070587;28;20043;-67
2022/09/13 11:00:23;;;;;;;5.38;1.63;;;23.10;91.00;;;;;;5071026;28;20054;-68
2022/09/13 11:03:26;;;;;;;5.35;1.40;;;22.90;91.00;;;;;;5074965;28;20040;-69
2022/09/13 11:06:17;;;;;;;7.70;1.58;;;22.80;90.60;;;;;;5078154;28;20093;-68
2022/09/13 11:09:01;;;;;;;5.22;1.40;;;22.90;90.70;;;;;;5072743;28;20097;-68
2022/09/13 11:11:30;;;;;;;9.65;1.63;;;23.10;90.30;;;;;;5057095;28;20044;-68
2022/09/13 11:14:23;;;;;;;5.00;1.35;;;23.30;91.10;;;;;;5070834;28;20041;-68
2022/09/13 11:17:25;;;;;;;8.00;1.70;;;23.50;86.10;;;;;;5069567;28;20390;-67
2022/09/13 11:20:03;;;;;;;4.68;1.27;;;23.60;86.80;;;;;;5075276;28;20036;-68
2022/09/13 11:22:52;;;;;;;4.82;1.30;;;23.60;86.80;;;;;;5042019;28;20502;-67
2022/09/13 11:25:29;;;;;;;7.40;1.40;;;23.30;85.70;;;;;;5030239;28;20124;-67
2022/09/13 11:28:11;;;;;;;6.72;1.73;;;22.80;85.20;;;;;;5035581;28;20094;-67
2022/09/13 11:31:08;;;;;;;7.80;1.83;;;22.40;87.70;;;;;;5035393;28;20082;-68
2022/09/13 11:33:52;;;;;;;6.72;1.40;;;22.40;90.20;;;;;;5068799;28;20061;-68
2022/09/13 11:36:42;;;;;;;10.77;1.73;;;22.60;87.30;;;;;;5072903;28;20093;-68
2022/09/13 11:39:39;;;;;;;8.85;2.22;;;22.60;89.00;;;;;;5066056;28;20084;-67
2022/09/13 11:42:24;;;;;;;8.27;1.75;;;22.40;90.70;;;;;;5051608;28;20140;-67
2022/09/13 11:45:04;;;;;;;5.07;1.45;;;22.40;91.90;;;;;;5053475;28;20111;-68
2022/09/13 11:48:05;;;;;;;9.80;2.22;;;22.80;91.40;;;;;;5035334;28;20096;-68
2022/09/13 11:50:39;;;;;;;5.80;1.40;;;23.10;90.40;;;;;;5053128;28;20045;-69
2022/09/13 11:53:25;;;;;;;4.35;1.40;;;23.30;89.10;;;;;;5057537;28;20072;-66
2022/09/13 11:56:04;;;;;;;8.82;1.65;;;23.30;87.90;;;;;;5070832;28;20067;-66
2022/09/13 11:58:53;;;;;;;9.48;1.60;;;23.30;88.40;;;;;;5072705;28;20503;-66
2022/09/13 12:01:35;;;;;;;8.75;1.63;;;23.60;87.70;;;;;;5070213;28;20482;-67
2022/09/13 12:04:10;;;;;;;8.65;1.58;;;23.80;87.80;;;;;;5035090;28;20037;-68
2022/09/13 12:06:43;;;;;;;8.35;1.55;;;23.80;86.50;;;;;;5052608;28;20048;-67
2022/09/13 12:09:18;;;;;;;6.40;1.67;;;23.80;87.70;;;;;;5067056;28;20079;-66
2022/09/13 12:11:51;;;;;;;6.82;1.60;;;23.80;85.70;;;;;;5035092;28;20040;-66
2022/09/13 12:14:22;;;;;;;15.32;1.83;;;23.90;87.10;;;;;;5057199;28;20509;-67
2022/09/13 12:16:52;;;;;;;10.00;1.80;;;24.20;87.10;;;;;;5049971;28;20037;-66
2022/09/13 12:19:25;;;;;;;6.18;1.50;;;24.40;87.00;;;;;;5052325;28;20510;-67
2022/09/13 12:21:54;;;;;;;7.03;1.38;;;24.30;84.70;;;;;;5045725;28;20063;-67
2022/09/13 12:24:38;;;;;;;6.18;1.75;;;24.00;86.10;;;;;;5053580;28;20055;-67
2022/09/13 12:27:25;;;;;;;7.03;1.60;;;23.70;88.20;;;;;;5059770;28;20033;-66
2022/09/13 12:29:55;;;;;;;9.27;1.88;;;23.80;89.20;;;;;;5052472;28;20044;-67
2022/09/13 12:32:22;;;;;;;9.48;1.60;;;24.10;87.50;;;;;;5065183;28;20051;-68
2022/09/13 12:35:22;;;;;;;7.95;1.60;;;24.10;87.20;;;;;;5057557;28;20514;-67
2022/09/13 12:38:07;;;;;;;;;;;23.90;86.40;;;;;;5032789;28;20091;-67
2022/09/13 12:41:04;;;;;;;5.47;1.40;;;23.50;86.60;;;;;;5054906;28;19981;-67
2022/09/13 12:43:45;;;;;;;11.85;2.05;;;23.20;86.90;;;;;;5056238;28;20045;-67
2022/09/13 12:46:25;;;;;;;8.15;1.70;;;22.90;88.80;;;;;;5071256;28;20103;-67
2022/09/13 12:49:35;;;;;;;5.97;1.30;;;22.70;90.00;;;;;;5048969;28;20047;-66
2022/09/13 12:52:19;;;;;;;8.73;1.70;;;23.00;90.40;;;;;;5067613;28;20036;-67
2022/09/13 12:54:57;;;;;;;7.05;1.80;;;23.40;87.50;;;;;;5057171;28;20353;-67
2022/09/13 12:57:34;;;;;;;8.68;1.88;;;23.40;86.70;;;;;;5033817;28;20450;-67
2022/09/13 13:00:10;;;;;;;8.50;1.70;;;23.10;87.00;;;;;;5057857;28;20657;-67
2022/09/13 13:02:48;;;;;;;13.15;1.92;;;23.00;86.50;;;;;;5054393;28;20079;-68
2022/09/13 13:05:25;;;;;;;10.50;1.70;;;22.80;87.70;;;;;;5057014;28;20071;-67
2022/09/13 13:07:56;;;;;;;9.18;2.08;;;22.50;87.70;;;;;;5046615;28;20120;-68
2022/09/13 13:10:32;;;;;;;8.65;1.90;;;22.40;88.60;;;;;;5054571;28;20041;-69
2022/09/13 13:13:10;;;;;;;11.30;1.90;;;22.20;88.30;;;;;;5052737;28;20049;-69
2022/09/13 13:15:35;;;;;;;8.55;1.88;;;21.90;88.80;;;;;;5033981;28;20037;-68
2022/09/13 13:18:39;;;;;;;7.90;1.63;;;21.60;89.20;;;;;;5055422;28;20036;-68